createdAt,value
2023-02-09T00:01:35.252Z,39.50
2023-02-09T00:04:02.726Z,40.78
2023-02-09T00:09:10.799Z,37.05
2023-02-09T00:11:56.685Z,35.85
2023-02-09T00:14:30.805Z,39.17
2023-02-09T00:17:18.757Z,38.15
2023-02-09T00:19:52.696Z,29.83
2023-02-09T00:22:19.870Z,36.75
2023-02-09T00:24:47.114Z,36.95
2023-02-09T00:27:25.293Z,42.38
2023-02-09T00:29:52.430Z,31.35
2023-02-09T00:32:30.782Z,39.70
2023-02-09T00:34:58.049Z,41.25
2023-02-09T00:37:26.739Z,35.03
2023-02-09T00:40:00.752Z,35.10
2023-02-09T00:42:28.199Z,27.17
2023-02-09T00:45:01.921Z,37.17
2023-02-09T00:47:29.126Z,38.83
2023-02-09T00:49:56.201Z,31.05
2023-02-09T00:52:29.759Z,31.00
2023-02-09T00:54:56.948Z,35.47
2023-02-09T00:57:31.064Z,37.30
2023-02-09T00:59:58.256Z,39.33
2023-02-09T01:02:25.461Z,34.78
2023-02-09T01:04:58.788Z,38.15
2023-02-09T01:07:26.136Z,29.88
2023-02-09T01:09:59.813Z,31.08
2023-02-09T01:12:27.123Z,35.92
2023-02-09T01:15:00.771Z,37.60
2023-02-09T01:17:34.822Z,31.08
2023-02-09T01:20:08.860Z,26.13
2023-02-09T01:22:38.890Z,37.25
2023-02-09T01:25:07.390Z,31.52
2023-02-09T01:27:41.870Z,32.55
2023-02-09T01:30:09.320Z,35.83
2023-02-09T01:32:43.787Z,30.50
2023-02-09T01:35:11.070Z,30.55
2023-02-09T01:37:44.864Z,27.50
2023-02-09T01:40:12.270Z,33.13
2023-02-09T01:42:39.811Z,30.50
2023-02-09T01:45:15.834Z,36.95
2023-02-09T01:47:45.080Z,38.47
2023-02-09T01:50:18.740Z,33.47
2023-02-09T01:52:47.531Z,48.03
2023-02-09T01:55:22.738Z,33.75
2023-02-09T01:57:52.609Z,35.55
2023-02-09T02:00:27.931Z,40.85
2023-02-09T02:03:05.013Z,36.40
2023-02-09T02:05:41.914Z,34.83
2023-02-09T02:08:15.401Z,38.88
2023-02-09T02:10:49.037Z,44.75
2023-02-09T02:13:25.913Z,36.08
2023-02-09T02:16:18.895Z,35.85
2023-02-09T02:19:12.754Z,39.42
2023-02-09T02:22:01.900Z,40.15
2023-02-09T02:24:53.569Z,44.22
2023-02-09T02:27:39.877Z,41.17
2023-02-09T02:30:19.658Z,41.33
2023-02-09T02:32:59.840Z,35.63
2023-02-09T02:35:44.681Z,40.67
2023-02-09T02:38:35.574Z,38.90
2023-02-09T02:41:32.681Z,40.10
2023-02-09T02:44:07.981Z,39.42
2023-02-09T02:46:41.735Z,39.72
2023-02-09T02:49:21.568Z,36.38
2023-02-09T02:51:56.696Z,35.20
2023-02-09T02:54:32.241Z,38.90
2023-02-09T02:57:11.729Z,41.53
2023-02-09T02:59:42.658Z,27.98
2023-02-09T03:05:14.774Z,40.85
2023-02-09T03:07:48.697Z,33.65
2023-02-09T03:10:35.394Z,41.08
2023-02-09T03:13:25.265Z,39.90
2023-02-09T03:15:55.648Z,27.83
2023-02-09T03:18:59.832Z,41.65
2023-02-09T03:21:37.063Z,38.85
2023-02-09T03:24:11.716Z,41.27
2023-02-09T03:26:52.785Z,41.25
2023-02-09T03:29:20.645Z,37.15
2023-02-09T03:31:55.891Z,33.72
2023-02-09T03:34:23.088Z,44.42
2023-02-09T03:37:00.932Z,48.42
2023-02-09T03:39:28.128Z,38.72
2023-02-09T03:41:55.309Z,39.10
2023-02-09T03:44:35.856Z,40.17
2023-02-09T03:47:04.146Z,40.92
2023-02-09T03:49:39.866Z,41.00
2023-02-09T03:52:08.065Z,41.20
2023-02-09T03:54:35.649Z,37.80
2023-02-09T03:59:41.004Z,52.40
2023-02-09T04:02:16.527Z,40.65
2023-02-09T04:04:43.772Z,45.95
2023-02-09T04:07:12.129Z,38.80
2023-02-09T04:09:45.815Z,46.85
2023-02-09T04:12:13.005Z,43.65
2023-02-09T04:14:46.947Z,39.88
2023-02-09T04:17:20.777Z,42.97
2023-02-09T04:20:01.025Z,51.53
2023-02-09T04:22:28.112Z,47.10
2023-02-09T04:24:55.339Z,37.35
2023-02-09T04:27:28.781Z,43.92
2023-02-09T04:29:55.862Z,45.63
2023-02-09T04:32:29.840Z,47.03
2023-02-09T04:34:56.978Z,40.58
2023-02-09T04:37:26.953Z,40.17
2023-02-09T04:40:00.862Z,41.72
2023-02-09T04:42:34.798Z,59.65
2023-02-09T04:45:08.919Z,47.38
2023-02-09T04:47:36.018Z,39.22
2023-02-09T04:50:03.238Z,48.85
2023-02-09T04:52:36.795Z,42.67
2023-02-09T04:55:03.986Z,47.50
2023-02-09T04:57:56.933Z,42.17
2023-02-09T05:00:24.045Z,50.65
2023-02-09T05:02:51.270Z,42.85
2023-02-09T05:05:25.785Z,54.67
2023-02-09T05:07:53.008Z,45.05
2023-02-09T05:10:26.920Z,42.53
2023-02-09T05:12:54.072Z,46.67
2023-02-09T05:15:21.166Z,40.83
2023-02-09T05:18:08.785Z,47.55
2023-02-09T05:20:36.562Z,42.17
2023-02-09T05:23:10.828Z,44.30
2023-02-09T05:25:38.211Z,64.45
2023-02-09T05:28:13.070Z,43.72
2023-02-09T05:30:40.351Z,44.15
2023-02-09T05:33:07.521Z,40.88
2023-02-09T05:35:40.843Z,37.75
2023-02-09T05:38:08.102Z,41.53
2023-02-09T05:40:44.151Z,49.35
2023-02-09T05:43:12.271Z,44.25
2023-02-09T05:45:39.526Z,41.35
2023-02-09T05:48:13.978Z,30.20
2023-02-09T05:50:41.195Z,45.40
2023-02-09T05:53:08.974Z,38.05
2023-02-09T05:55:42.834Z,43.40
2023-02-09T05:58:10.082Z,35.53
2023-02-09T06:00:44.294Z,37.85
2023-02-09T06:03:11.552Z,44.70
2023-02-09T06:05:38.784Z,36.70
2023-02-09T06:08:12.816Z,39.80
2023-02-09T06:10:40.036Z,36.03
2023-02-09T06:13:13.937Z,39.72
2023-02-09T06:15:41.102Z,37.42
2023-02-09T06:18:30.995Z,34.20
2023-02-09T06:20:59.107Z,33.70
2023-02-09T06:23:26.342Z,34.65
2023-02-09T06:25:59.882Z,29.02
2023-02-09T06:28:27.239Z,32.80
2023-02-09T06:30:54.933Z,36.95
2023-02-09T06:33:28.833Z,39.05
2023-02-09T06:35:55.981Z,30.00
2023-02-09T06:38:29.877Z,33.28
2023-02-09T06:40:56.944Z,35.45
2023-02-09T06:43:24.154Z,35.63
2023-02-09T06:45:57.898Z,37.80
2023-02-09T06:48:25.154Z,32.55
2023-02-09T06:50:58.978Z,42.65
2023-02-09T06:53:26.314Z,30.13
2023-02-09T06:55:53.530Z,41.55
2023-02-09T06:58:26.858Z,40.13
2023-02-09T07:00:54.006Z,34.05
2023-02-09T07:03:27.811Z,40.00
2023-02-09T07:05:55.034Z,42.20
2023-02-09T07:08:29.952Z,33.60
2023-02-09T07:10:57.178Z,35.78
2023-02-09T07:13:24.533Z,30.27
2023-02-09T07:16:05.097Z,32.42
2023-02-09T07:18:39.163Z,42.83
2023-02-09T07:21:14.872Z,40.30
2023-02-09T07:23:42.116Z,35.58
2023-02-09T07:26:11.287Z,37.65
2023-02-09T07:28:45.937Z,50.08
2023-02-09T07:31:14.956Z,43.15
2023-02-09T07:33:48.832Z,39.17
2023-02-09T07:36:17.058Z,35.65
2023-02-09T07:38:50.938Z,39.22
2023-02-09T07:41:19.884Z,35.05
2023-02-09T07:43:53.949Z,51.65
2023-02-09T07:46:22.271Z,35.40
2023-02-09T07:48:49.943Z,42.95
2023-02-09T07:51:26.833Z,50.40
2023-02-09T07:53:54.182Z,53.88
2023-02-09T07:56:27.999Z,39.63
2023-02-09T07:58:57.280Z,49.80
2023-02-09T08:01:25.081Z,51.47
2023-02-09T08:04:02.178Z,58.63
2023-02-09T08:06:41.566Z,58.08
2023-02-09T08:09:20.721Z,49.50
2023-02-09T08:11:47.831Z,51.20
2023-02-09T08:14:17.064Z,60.65
2023-02-09T08:20:06.607Z,58.13
2023-02-09T08:22:49.955Z,57.25
2023-02-09T08:25:18.435Z,66.72
2023-02-09T08:27:45.801Z,75.88
2023-02-09T08:30:20.959Z,59.35
2023-02-09T08:32:48.210Z,70.07
2023-02-09T08:35:21.846Z,66.38
2023-02-09T08:37:48.972Z,54.60
2023-02-09T08:40:22.942Z,70.65
2023-02-09T08:42:50.070Z,81.88
2023-02-09T08:45:17.299Z,75.97
2023-02-09T08:47:50.856Z,70.60
2023-02-09T08:50:18.094Z,81.72
2023-02-09T08:52:51.964Z,87.85
2023-02-09T08:55:19.123Z,78.55
2023-02-09T08:57:46.315Z,73.10
2023-02-09T09:00:20.927Z,79.38
2023-02-09T09:02:48.107Z,88.28
2023-02-09T09:05:21.990Z,76.88
2023-02-09T09:07:49.145Z,82.18
2023-02-09T09:10:16.360Z,81.13
2023-02-09T09:12:50.889Z,81.88
2023-02-09T09:15:18.175Z,87.65
2023-02-09T09:18:04.909Z,99.93
2023-02-09T09:20:32.154Z,88.13
2023-02-09T09:22:59.535Z,86.82
2023-02-09T09:25:32.884Z,87.22
2023-02-09T09:28:00.127Z,71.43
2023-02-09T09:30:33.939Z,105.78
2023-02-09T09:33:01.344Z,95.40
2023-02-09T09:35:28.703Z,100.55
2023-02-09T09:38:03.852Z,112.82
2023-02-09T09:40:35.572Z,97.53
2023-02-09T09:43:13.857Z,113.88
2023-02-09T09:45:41.524Z,96.30
2023-02-09T09:50:43.561Z,82.38
2023-02-09T09:53:25.925Z,101.50
2023-02-09T09:55:55.312Z,80.68
2023-02-09T09:58:29.878Z,82.20
2023-02-09T10:00:57.305Z,77.65
2023-02-09T10:03:30.889Z,75.93
2023-02-09T10:06:08.886Z,90.43
2023-02-09T10:08:46.988Z,87.22
2023-02-09T10:11:15.323Z,95.65
2023-02-09T10:13:45.334Z,86.43
2023-02-09T10:16:31.883Z,77.13
2023-02-09T10:19:20.813Z,100.82
2023-02-09T10:24:33.407Z,71.15
2023-02-09T10:27:20.862Z,82.63
2023-02-09T10:29:48.039Z,75.88
2023-02-09T10:32:22.967Z,75.13
2023-02-09T10:34:54.277Z,56.33
2023-02-09T10:37:21.379Z,70.63
2023-02-09T10:40:00.963Z,79.40
2023-02-09T10:42:36.807Z,69.97
2023-02-09T10:45:23.004Z,71.35
2023-02-09T10:48:06.929Z,69.28
2023-02-09T10:50:34.240Z,88.32
2023-02-09T10:53:02.981Z,75.78
2023-02-09T10:55:40.883Z,77.05
2023-02-09T10:58:11.381Z,65.53
2023-02-09T11:00:51.113Z,73.65
2023-02-09T11:03:28.795Z,59.35
2023-02-09T11:06:19.353Z,71.72
2023-02-09T11:08:58.806Z,68.82
2023-02-09T11:11:31.195Z,65.18
2023-02-09T11:14:05.034Z,73.40
2023-02-09T11:16:44.755Z,59.60
2023-02-09T11:19:28.807Z,53.53
2023-02-09T11:22:10.175Z,63.75
2023-02-09T11:25:02.890Z,65.40
2023-02-09T11:27:49.094Z,58.15
2023-02-09T11:30:29.961Z,63.25
2023-02-09T11:33:01.549Z,53.95
2023-02-09T11:35:45.938Z,52.92
2023-02-09T11:38:15.829Z,52.15
2023-02-09T11:40:57.858Z,56.75
2023-02-09T11:43:32.109Z,44.47
2023-02-09T11:46:07.937Z,51.15
2023-02-09T11:48:37.792Z,58.67
2023-02-09T11:51:14.831Z,57.63
2023-02-09T11:53:49.008Z,56.30
2023-02-09T11:56:17.629Z,48.08
2023-02-09T11:59:10.033Z,34.67
2023-02-09T12:01:45.431Z,52.88
2023-02-09T12:04:29.032Z,55.13
2023-02-09T12:06:58.021Z,56.42
2023-02-09T12:09:46.040Z,45.65
2023-02-09T12:12:22.142Z,57.17
2023-02-09T12:15:30.951Z,44.92
2023-02-09T12:17:59.773Z,49.35
2023-02-09T12:20:46.178Z,58.05
2023-02-09T12:23:32.508Z,47.00
2023-02-09T12:26:08.048Z,50.35
2023-02-09T12:28:35.247Z,51.25
2023-02-09T12:31:04.666Z,38.97
2023-02-09T12:33:42.992Z,58.25
2023-02-09T12:36:10.157Z,42.90
2023-02-09T12:39:05.649Z,47.05
2023-02-09T12:41:36.299Z,39.72
2023-02-09T12:44:20.239Z,56.58
2023-02-09T12:46:47.485Z,38.55
2023-02-09T12:49:14.591Z,46.15
2023-02-09T12:51:50.031Z,29.15
2023-02-09T12:54:37.912Z,42.97
2023-02-09T12:57:23.911Z,34.33
2023-02-09T12:59:51.283Z,45.63
2023-02-09T13:02:43.938Z,32.80
2023-02-09T13:05:23.185Z,25.10
2023-02-09T13:07:56.988Z,38.83
2023-02-09T13:10:33.382Z,47.13
2023-02-09T13:13:13.091Z,39.45
2023-02-09T13:15:55.321Z,28.10
2023-02-09T13:18:41.966Z,40.85
2023-02-09T13:21:15.919Z,37.40
2023-02-09T13:23:56.067Z,39.22
2023-02-09T13:26:24.440Z,47.33
2023-02-09T13:29:20.541Z,37.67
2023-02-09T13:32:01.159Z,25.23
2023-02-09T13:34:49.930Z,39.90
2023-02-09T13:39:50.981Z,40.30
2023-02-09T13:42:20.211Z,30.15
2023-02-09T13:44:56.907Z,42.42
2023-02-09T13:47:24.257Z,41.38
2023-02-09T13:50:04.160Z,35.78
2023-02-09T13:52:37.681Z,33.33
2023-02-09T13:55:17.173Z,20.58
2023-02-09T13:57:45.845Z,22.60
2023-02-09T14:00:23.978Z,32.50
2023-02-09T14:05:30.046Z,29.52
2023-02-09T14:08:04.037Z,23.08
2023-02-09T14:10:31.916Z,30.75
2023-02-09T14:13:35.073Z,30.25
2023-02-09T14:16:09.953Z,21.20
2023-02-09T14:19:16.915Z,33.50
2023-02-09T14:21:51.132Z,27.38
2023-02-09T14:24:28.986Z,29.88
2023-02-09T14:26:59.588Z,29.13
2023-02-09T14:29:35.948Z,29.98
2023-02-09T14:32:06.961Z,15.75
2023-02-09T14:34:48.022Z,36.45
2023-02-09T14:37:15.259Z,41.08
2023-02-09T14:40:08.935Z,35.15
2023-02-09T14:42:39.413Z,21.35
2023-02-09T14:45:23.217Z,29.65
2023-02-09T14:47:50.404Z,37.45
2023-02-09T14:50:31.052Z,32.17
2023-02-09T14:53:05.374Z,36.33
2023-02-09T14:55:41.959Z,37.13
2023-02-09T14:58:12.884Z,28.00
2023-02-09T15:00:47.005Z,34.55
2023-02-09T15:03:14.162Z,31.50
2023-02-09T15:05:41.777Z,38.15
2023-02-09T15:10:48.162Z,34.42
2023-02-09T15:13:23.174Z,39.00
2023-02-09T15:15:50.632Z,30.75
2023-02-09T15:20:57.996Z,28.58
2023-02-09T15:23:39.000Z,40.65
2023-02-09T15:26:07.126Z,38.15
2023-02-09T15:28:34.413Z,22.98
2023-02-09T15:31:07.894Z,34.58
2023-02-09T15:33:35.100Z,39.25
2023-02-09T15:36:08.993Z,32.85
2023-02-09T15:38:36.934Z,33.58
2023-02-09T15:41:29.105Z,38.38
2023-02-09T15:44:14.932Z,33.50
2023-02-09T15:47:06.886Z,40.10
2023-02-09T15:49:34.071Z,35.08
2023-02-09T15:52:07.885Z,48.08
2023-02-09T15:54:35.278Z,31.58
2023-02-09T15:57:08.867Z,31.17
2023-02-09T15:59:36.031Z,26.15
2023-02-09T16:02:10.129Z,36.72
2023-02-09T16:04:37.292Z,26.02
2023-02-09T16:07:04.447Z,35.15
2023-02-09T16:09:37.974Z,38.03
2023-02-09T16:12:09.862Z,39.70
2023-02-09T16:14:44.062Z,34.72
2023-02-09T16:17:11.242Z,41.40
2023-02-09T16:19:58.084Z,37.88
2023-02-09T16:22:25.331Z,44.28
2023-02-09T16:24:52.581Z,44.67
2023-02-09T16:27:34.949Z,47.47
2023-02-09T16:30:02.353Z,38.80
2023-02-09T16:32:36.090Z,42.88
2023-02-09T16:35:15.691Z,33.13
2023-02-09T16:37:52.057Z,35.40
2023-02-09T16:40:30.316Z,32.35
2023-02-09T16:45:37.939Z,54.90
2023-02-09T16:48:05.596Z,28.80
2023-02-09T16:50:34.385Z,44.53
2023-02-09T16:53:10.242Z,38.30
2023-02-09T16:55:38.010Z,36.15
2023-02-09T16:58:05.903Z,46.50
2023-02-09T17:00:40.989Z,38.53
2023-02-09T17:03:20.938Z,47.55
2023-02-09T17:05:52.142Z,38.28
2023-02-09T17:08:26.898Z,36.70
2023-02-09T17:10:55.454Z,43.75
2023-02-09T17:13:28.927Z,40.75
2023-02-09T17:15:59.478Z,25.60
2023-02-09T17:18:28.324Z,38.45
2023-02-09T17:21:02.969Z,37.25
2023-02-09T17:23:30.384Z,30.23
2023-02-09T17:25:57.483Z,52.28
2023-02-09T17:28:32.013Z,43.42
2023-02-09T17:31:03.418Z,33.47
2023-02-09T17:33:38.961Z,32.30
2023-02-09T17:39:01.004Z,30.48
2023-02-09T17:41:28.414Z,47.00
2023-02-09T17:44:18.851Z,42.55
2023-02-09T17:46:49.644Z,36.38
2023-02-09T17:51:51.501Z,36.35
2023-02-09T17:54:19.775Z,38.33
2023-02-09T17:56:53.996Z,28.55
2023-02-09T17:59:21.325Z,45.42
2023-02-09T18:02:01.998Z,38.70
2023-02-09T18:04:30.831Z,43.10
2023-02-09T18:07:05.013Z,34.88
2023-02-09T18:09:32.383Z,34.17
2023-02-09T18:12:09.978Z,36.90
2023-02-09T18:14:37.158Z,32.70
2023-02-09T18:17:11.271Z,27.08
2023-02-09T18:19:58.911Z,37.53
2023-02-09T18:22:34.041Z,25.75
2023-02-09T18:25:08.063Z,50.20
2023-02-09T18:27:35.157Z,35.08
2023-02-09T18:30:08.958Z,30.13
2023-02-09T18:32:36.190Z,38.00
2023-02-09T18:35:03.407Z,42.40
2023-02-09T18:37:36.922Z,30.48
2023-02-09T18:40:04.323Z,39.05
2023-02-09T18:42:38.087Z,53.65
2023-02-09T18:45:05.488Z,41.88
2023-02-09T18:47:32.742Z,26.75
2023-02-09T18:50:05.917Z,45.88
2023-02-09T18:52:34.699Z,56.72
2023-02-09T18:55:09.078Z,63.03
2023-02-09T18:57:36.499Z,41.80
2023-02-09T19:00:04.881Z,27.77
2023-02-09T19:02:39.355Z,34.45
2023-02-09T19:05:06.889Z,42.40
2023-02-09T19:10:11.162Z,48.75
2023-02-09T19:12:39.607Z,26.33
2023-02-09T19:15:06.734Z,43.33
2023-02-09T19:17:41.028Z,40.22
2023-02-09T19:20:35.928Z,32.25
2023-02-09T19:23:10.036Z,41.88
2023-02-09T19:25:37.349Z,23.35
2023-02-09T19:28:04.509Z,29.05
2023-02-09T19:30:38.085Z,38.65
2023-02-09T19:33:05.358Z,29.00
2023-02-09T19:35:39.073Z,39.05
2023-02-09T19:38:06.161Z,20.55
2023-02-09T19:40:36.622Z,24.27
2023-02-09T19:43:12.025Z,24.30
2023-02-09T19:45:39.345Z,19.90
2023-02-09T19:48:14.026Z,22.35
2023-02-09T19:50:41.372Z,22.95
2023-02-09T19:53:15.196Z,17.60
2023-02-09T19:55:47.607Z,25.83
2023-02-09T19:58:22.040Z,29.80
2023-02-09T20:00:56.100Z,18.42
2023-02-09T20:03:24.252Z,20.45
2023-02-09T20:05:51.735Z,31.70
2023-02-09T20:10:52.152Z,28.85
2023-02-09T20:13:19.401Z,37.42
2023-02-09T20:15:52.999Z,36.70
2023-02-09T20:18:20.452Z,30.85
2023-02-09T20:23:21.356Z,31.98
2023-02-09T20:25:55.138Z,43.95
2023-02-09T20:28:22.416Z,28.75
2023-02-09T20:33:24.110Z,24.90
2023-02-09T20:35:51.435Z,28.65
2023-02-09T20:38:40.015Z,28.75
2023-02-09T20:41:18.075Z,8.88
2023-02-09T20:44:11.039Z,18.95
2023-02-09T20:46:56.409Z,30.15
2023-02-09T20:49:32.012Z,30.55
2023-02-09T20:51:59.232Z,21.60
2023-02-09T20:54:34.246Z,23.95
2023-02-09T20:57:01.420Z,15.57
2023-02-09T20:59:28.809Z,27.55
2023-02-09T21:02:02.018Z,31.38
2023-02-09T21:04:30.302Z,24.80
2023-02-09T21:07:05.155Z,22.40
2023-02-09T21:09:32.321Z,16.55
2023-02-09T21:11:59.445Z,23.45
2023-02-09T21:14:41.861Z,23.10
2023-02-09T21:17:10.078Z,20.33
2023-02-09T21:19:44.196Z,14.32
2023-02-09T21:22:18.018Z,17.48
2023-02-09T21:24:52.151Z,11.43
2023-02-09T21:27:25.940Z,14.63
2023-02-09T21:30:00.049Z,15.13
2023-02-09T21:32:33.977Z,16.55
2023-02-09T21:35:08.253Z,9.60
2023-02-09T21:37:35.435Z,9.88
2023-02-09T21:40:03.098Z,9.73
2023-02-09T21:42:38.131Z,6.22
2023-02-09T21:45:07.664Z,17.73
2023-02-09T21:47:43.087Z,14.00
2023-02-09T21:50:11.718Z,14.05
2023-02-09T21:52:38.808Z,13.25
2023-02-09T21:55:15.014Z,15.30
2023-02-09T21:57:42.179Z,13.48
2023-02-09T22:00:16.058Z,14.68
2023-02-09T22:02:43.292Z,13.52
2023-02-09T22:05:10.456Z,17.85
2023-02-09T22:07:44.118Z,14.85
2023-02-09T22:10:11.704Z,13.60
2023-02-09T22:15:13.355Z,15.50
2023-02-09T22:17:40.568Z,15.70
2023-02-09T22:20:21.054Z,12.32
2023-02-09T22:22:54.950Z,11.45
2023-02-09T22:25:29.227Z,13.48
2023-02-09T22:27:56.545Z,14.70
2023-02-09T22:30:24.058Z,24.08
2023-02-09T22:35:25.365Z,19.70
2023-02-09T22:37:59.221Z,17.20
2023-02-09T22:40:26.408Z,16.80
2023-02-09T22:42:53.526Z,21.90
2023-02-09T22:45:27.104Z,20.75
2023-02-09T22:47:54.348Z,11.88
2023-02-09T22:50:27.964Z,18.30
2023-02-09T22:52:55.377Z,13.80
2023-02-09T22:55:30.117Z,17.73
2023-02-09T22:57:57.392Z,11.82
2023-02-09T23:00:24.561Z,18.83
2023-02-09T23:02:57.992Z,15.25
2023-02-09T23:05:25.420Z,18.98
2023-02-09T23:07:58.992Z,20.33
2023-02-09T23:10:26.236Z,11.73
2023-02-09T23:12:59.973Z,9.50
2023-02-09T23:15:27.080Z,27.35
2023-02-09T23:18:01.127Z,15.68
2023-02-09T23:20:35.062Z,18.13
2023-02-09T23:23:18.103Z,21.33
2023-02-09T23:25:45.429Z,14.77
2023-02-09T23:28:12.867Z,19.45
2023-02-09T23:30:47.341Z,22.63
2023-02-09T23:33:14.928Z,19.77
2023-02-09T23:36:02.131Z,10.68
2023-02-09T23:38:29.432Z,14.48
2023-02-09T23:40:56.550Z,17.00
2023-02-09T23:43:30.055Z,16.17
2023-02-09T23:45:57.343Z,16.48
2023-02-09T23:48:31.241Z,18.08
2023-02-09T23:51:02.169Z,18.30
2023-02-09T23:53:29.736Z,19.67
2023-02-09T23:58:39.019Z,12.85
